Time;durP1;ratioP1;P1;durP2;ratioP2;P2;SDS_P1;SDS_P2;PMS_P1;PMS_P2;Temp;Humidity;BMP_temperature;BMP_pressure;BME280_temperature;BME280_humidity;BME280_pressure;Samples;Min_cycle;Max_cycle;Signal;HPM_P1;HPM_P2
2024/04/01 00:01:18;;;;;;;1.50;1.20;;;15.20;99.90;;;;;;4999988;28;20448;-30
2024/04/01 00:03:47;;;;;;;3.90;1.53;;;15.20;99.90;;;;;;4997989;28;20421;-29
2024/04/01 00:06:13;;;;;;;2.10;1.37;;;15.20;99.90;;;;;;4979136;28;20437;-26
2024/04/01 00:08:41;;;;;;;2.93;1.33;;;15.10;99.90;;;;;;4993213;28;20554;-29
2024/04/01 00:11:07;;;;;;;1.80;1.20;;;15.10;99.90;;;;;;4999166;28;20454;-28
2024/04/01 00:13:33;;;;;;;1.13;1.00;;;15.10;99.90;;;;;;4998846;28;20423;-32
2024/04/01 00:16:02;;;;;;;1.73;1.37;;;15.10;99.90;;;;;;4999418;28;20436;-30
2024/04/01 00:18:30;;;;;;;3.57;1.50;;;15.10;99.90;;;;;;4999349;28;20451;-30
2024/04/01 00:20:57;;;;;;;1.50;1.10;;;15.10;99.90;;;;;;4998309;28;20428;-28
2024/04/01 00:23:24;;;;;;;1.80;1.30;;;15.10;99.90;;;;;;4983415;28;20426;-32
2024/04/01 00:25:50;;;;;;;2.40;1.40;;;15.10;99.90;;;;;;4983393;28;20525;-31
2024/04/01 00:28:16;;;;;;;2.17;1.20;;;15.10;99.90;;;;;;5003037;28;20905;-34
2024/04/01 00:30:43;;;;;;;2.00;1.40;;;15.10;99.90;;;;;;5003661;28;20432;-32
2024/04/01 00:33:09;;;;;;;1.83;1.10;;;15.10;99.90;;;;;;4986260;28;20435;-33
2024/04/01 00:35:42;;;;;;;2.60;1.30;;;15.10;99.90;;;;;;5004620;28;20469;-34
2024/04/01 00:38:14;;;;;;;1.97;1.13;;;15.00;99.90;;;;;;5005116;28;20977;-35
2024/04/01 00:40:43;;;;;;;2.07;1.17;;;15.00;99.90;;;;;;4974325;28;20468;-32
2024/04/01 00:43:13;;;;;;;1.80;1.17;;;15.00;99.90;;;;;;5003784;28;20435;-27
2024/04/01 00:45:43;;;;;;;3.00;1.23;;;15.00;99.90;;;;;;5005646;28;20522;-29
2024/04/01 00:48:15;;;;;;;1.40;1.10;;;15.00;99.90;;;;;;5005844;28;20543;-31
2024/04/01 00:50:47;;;;;;;1.80;1.20;;;15.00;99.90;;;;;;5003645;28;20511;-32
2024/04/01 00:53:16;;;;;;;1.70;1.20;;;15.00;99.90;;;;;;4998107;28;20431;-32
2024/04/01 00:55:45;;;;;;;2.43;1.10;;;15.00;99.90;;;;;;4998963;28;20443;-34
2024/04/01 00:58:12;;;;;;;1.30;1.00;;;15.00;99.90;;;;;;4999430;28;20445;-30
2024/04/01 01:00:38;;;;;;;2.60;1.20;;;15.00;99.90;;;;;;4998560;28;20579;-34
2024/04/01 01:03:07;;;;;;;1.63;1.00;;;14.90;99.90;;;;;;4998143;28;20967;-34
2024/04/01 01:05:36;;;;;;;1.73;1.20;;;15.00;99.90;;;;;;4997964;28;20449;-31
2024/04/01 01:08:05;;;;;;;1.60;0.97;;;15.00;99.90;;;;;;4995889;28;20654;-32
2024/04/01 01:10:33;;;;;;;1.63;1.27;;;14.90;99.90;;;;;;4998020;28;20424;-32
2024/04/01 01:13:01;;;;;;;1.53;1.20;;;14.90;99.90;;;;;;4997823;28;20938;-33
2024/04/01 01:15:29;;;;;;;1.00;0.80;;;14.90;99.90;;;;;;4997527;28;20467;-31
2024/04/01 01:17:58;;;;;;;1.67;0.97;;;14.90;99.90;;;;;;4997696;28;20539;-32
2024/04/01 01:20:24;;;;;;;1.23;0.90;;;14.90;99.90;;;;;;4997427;28;20472;-33
2024/04/01 01:22:50;;;;;;;1.47;1.37;;;14.90;99.90;;;;;;4996412;28;20446;-31
2024/04/01 01:25:19;;;;;;;1.17;1.07;;;14.90;99.90;;;;;;4996440;28;20424;-34
2024/04/01 01:27:47;;;;;;;1.03;0.93;;;14.90;99.90;;;;;;4993797;28;20955;-34
2024/04/01 01:30:19;;;;;;;1.23;1.00;;;14.90;99.90;;;;;;4981379;28;20897;-35
2024/04/01 01:32:53;;;;;;;1.10;0.80;;;14.90;99.90;;;;;;4998929;28;20443;-35
2024/04/01 01:35:25;;;;;;;4.30;1.23;;;14.80;99.90;;;;;;4997670;28;20432;-31
2024/04/01 01:37:53;;;;;;;1.00;0.90;;;14.80;99.90;;;;;;4964839;28;20450;-32
2024/04/01 01:40:20;;;;;;;1.37;0.90;;;14.80;99.90;;;;;;4998494;28;20476;-34
2024/04/01 01:42:47;;;;;;;1.60;1.00;;;14.80;99.90;;;;;;4996802;28;20447;-32
2024/04/01 01:45:13;;;;;;;1.00;0.90;;;14.80;99.90;;;;;;4998261;28;20994;-32
2024/04/01 01:47:43;;;;;;;1.43;1.00;;;14.80;99.90;;;;;;4999252;28;20432;-33
2024/04/01 01:50:09;;;;;;;1.43;0.73;;;14.80;99.90;;;;;;4994282;28;20432;-31
2024/04/01 01:52:39;;;;;;;1.83;0.90;;;14.80;99.90;;;;;;4999280;28;20427;-35
2024/04/01 01:55:08;;;;;;;1.70;0.97;;;14.80;99.90;;;;;;4997308;28;20449;-32
2024/04/01 01:57:34;;;;;;;1.70;1.00;;;14.80;99.90;;;;;;4999767;28;20493;-32
2024/04/01 02:00:05;;;;;;;1.13;0.90;;;14.70;99.90;;;;;;4999883;28;21358;-33
2024/04/01 02:02:32;;;;;;;1.10;0.93;;;14.80;99.90;;;;;;4999733;28;20451;-32
2024/04/01 02:04:59;;;;;;;2.13;1.10;;;14.80;99.90;;;;;;4981958;28;20451;-32
2024/04/01 02:07:27;;;;;;;1.67;1.10;;;14.80;99.90;;;;;;4999852;28;20431;-31
2024/04/01 02:09:53;;;;;;;1.30;0.90;;;14.70;99.90;;;;;;5004447;28;20452;-30
2024/04/01 02:12:19;;;;;;;1.17;0.90;;;14.70;99.90;;;;;;5003395;28;20432;-32
2024/04/01 02:14:52;;;;;;;1.37;0.90;;;14.70;99.90;;;;;;5005143;28;20518;-30
2024/04/01 02:17:22;;;;;;;1.63;0.90;;;14.70;99.90;;;;;;5004207;28;20206;-30
2024/04/01 02:19:51;;;;;;;1.93;1.10;;;14.70;99.90;;;;;;4973514;28;20866;-30
2024/04/01 02:22:22;;;;;;;2.67;0.90;;;14.70;99.90;;;;;;5005556;28;20482;-34
2024/04/01 02:24:55;;;;;;;1.43;1.10;;;14.70;99.90;;;;;;5004156;28;21013;-32
2024/04/01 02:27:20;;;;;;;2.17;1.07;;;14.70;99.90;;;;;;5003868;28;21141;-34
2024/04/01 02:29:46;;;;;;;1.63;1.10;;;14.70;99.90;;;;;;5003847;28;20504;-30
2024/04/01 02:32:18;;;;;;;2.53;1.03;;;14.70;99.90;;;;;;5002275;28;20490;-34
2024/04/01 02:34:48;;;;;;;1.93;0.90;;;14.70;99.90;;;;;;4998107;28;20458;-36
2024/04/01 02:37:15;;;;;;;1.10;0.80;;;14.70;99.90;;;;;;4983063;28;20514;-33
2024/04/01 02:39:44;;;;;;;2.37;1.03;;;14.70;99.90;;;;;;5001574;28;20484;-35
2024/04/01 02:42:13;;;;;;;2.00;1.03;;;14.60;99.90;;;;;;4996227;28;20432;-32
2024/04/01 02:44:39;;;;;;;1.33;1.00;;;14.60;99.90;;;;;;5000436;28;20420;-36
2024/04/01 02:47:08;;;;;;;1.20;0.83;;;14.60;99.90;;;;;;4998795;28;21203;-32
2024/04/01 02:49:34;;;;;;;2.00;0.90;;;14.60;99.90;;;;;;4998677;28;21015;-32
2024/04/01 02:52:00;;;;;;;2.07;1.20;;;14.60;99.90;;;;;;5000446;28;20428;-33
2024/04/01 02:54:28;;;;;;;1.17;0.90;;;14.60;99.90;;;;;;4982050;28;20492;-31
2024/04/01 02:56:54;;;;;;;1.20;0.80;;;14.60;99.90;;;;;;4965441;28;20487;-33
2024/04/01 02:59:21;;;;;;;1.07;0.97;;;14.60;99.90;;;;;;4981485;28;20476;-34
2024/04/01 03:01:48;;;;;;;1.63;1.00;;;14.60;99.90;;;;;;4999093;28;20444;-35
2024/04/01 03:04:16;;;;;;;1.37;1.00;;;14.60;99.90;;;;;;4998901;28;20442;-32
2024/04/01 03:06:43;;;;;;;1.50;0.90;;;14.50;99.90;;;;;;5000266;28;20431;-33
2024/04/01 03:09:39;;;;;;;0.90;0.80;;;14.60;99.90;;;;;;4998938;28;20914;-36
2024/04/01 03:12:07;;;;;;;2.30;0.93;;;14.50;99.90;;;;;;5000047;28;21112;-34
2024/04/01 03:14:33;;;;;;;1.53;0.77;;;14.50;99.90;;;;;;4999604;28;20440;-32
2024/04/01 03:16:59;;;;;;;1.23;1.00;;;14.50;99.90;;;;;;4999920;28;20459;-34
2024/04/01 03:19:28;;;;;;;0.80;0.70;;;14.50;99.90;;;;;;4998158;28;20547;-33
2024/04/01 03:21:54;;;;;;;1.80;0.90;;;14.50;99.90;;;;;;4998836;28;20538;-33
2024/04/01 03:24:20;;;;;;;1.87;0.90;;;14.50;99.90;;;;;;5000363;28;20464;-33
2024/04/01 03:26:46;;;;;;;1.17;0.83;;;14.50;99.90;;;;;;5002097;28;20459;-32
2024/04/01 03:29:12;;;;;;;0.97;0.80;;;14.50;99.90;;;;;;5009985;22;21086;-30
2024/04/01 03:31:41;;;;;;;1.57;0.80;;;14.50;99.90;;;;;;4983375;28;21171;-31
2024/04/01 03:34:09;;;;;;;1.43;0.87;;;14.50;99.90;;;;;;4998427;28;21368;-34
2024/04/01 03:36:36;;;;;;;1.27;0.90;;;14.50;99.90;;;;;;4999188;28;20425;-33
2024/04/01 03:39:04;;;;;;;1.10;1.00;;;14.50;99.90;;;;;;4998088;28;20464;-31
2024/04/01 03:41:34;;;;;;;1.67;0.60;;;14.50;99.90;;;;;;4981588;28;20436;-36
2024/04/01 03:44:03;;;;;;;1.23;0.87;;;14.50;99.90;;;;;;4998860;28;20428;-34
2024/04/01 03:46:29;;;;;;;3.60;1.60;;;14.50;99.90;;;;;;4997811;28;21256;-33
2024/04/01 03:48:55;;;;;;;3.17;1.10;;;14.40;99.90;;;;;;4998837;28;20452;-33
2024/04/01 03:51:23;;;;;;;1.27;0.90;;;14.40;99.90;;;;;;4999478;28;20431;-34
2024/04/01 03:53:49;;;;;;;2.40;0.80;;;14.40;99.90;;;;;;4997900;28;20617;-35
2024/04/01 03:56:15;;;;;;;1.67;1.10;;;14.40;99.90;;;;;;4999599;28;20523;-32
2024/04/01 03:58:45;;;;;;;2.40;1.07;;;14.40;99.90;;;;;;4998687;28;20229;-32
2024/04/01 04:01:11;;;;;;;1.40;0.90;;;14.40;99.90;;;;;;4995328;28;20426;-34
2024/04/01 04:03:37;;;;;;;1.27;0.80;;;14.40;99.90;;;;;;4999024;28;20500;-33
2024/04/01 04:06:03;;;;;;;0.90;0.80;;;14.40;99.90;;;;;;4998362;28;20452;-34
2024/04/01 04:08:29;;;;;;;1.33;0.93;;;14.40;99.90;;;;;;4992413;28;20492;-35
2024/04/01 04:10:55;;;;;;;1.57;0.80;;;14.40;99.90;;;;;;4999353;28;20432;-37
2024/04/01 04:13:25;;;;;;;1.00;0.80;;;14.40;99.90;;;;;;4998221;28;20448;-31
2024/04/01 04:15:53;;;;;;;1.63;0.80;;;14.40;99.90;;;;;;4998339;28;21506;-30
2024/04/01 04:18:19;;;;;;;0.80;0.77;;;14.30;99.90;;;;;;4999107;28;20488;-34
2024/04/01 04:20:48;;;;;;;1.47;1.10;;;14.30;99.90;;;;;;4998515;28;20472;-35
2024/04/01 04:23:18;;;;;;;2.40;0.80;;;14.30;99.90;;;;;;4998465;28;20440;-33
2024/04/01 04:25:44;;;;;;;1.20;0.70;;;14.30;99.90;;;;;;4995521;28;20505;-38
2024/04/01 04:28:10;;;;;;;1.20;0.80;;;14.30;99.90;;;;;;4999828;28;20868;-34
2024/04/01 04:30:36;;;;;;;0.73;0.70;;;14.30;99.90;;;;;;4999661;28;20429;-36
2024/04/01 04:33:05;;;;;;;0.90;0.77;;;14.30;99.90;;;;;;5000199;28;20196;-28
2024/04/01 04:35:31;;;;;;;0.80;0.73;;;14.30;99.90;;;;;;4998117;28;20461;-30
2024/04/01 04:37:57;;;;;;;1.13;0.70;;;14.30;99.90;;;;;;4984118;28;20455;-30
2024/04/01 04:40:24;;;;;;;1.00;0.80;;;14.30;99.90;;;;;;5001354;28;20496;-29
2024/04/01 04:42:51;;;;;;;1.00;0.90;;;14.30;99.90;;;;;;4973095;28;20713;-30
2024/04/01 04:45:17;;;;;;;1.27;0.97;;;14.30;99.90;;;;;;5002764;28;20944;-32
2024/04/01 04:47:44;;;;;;;0.97;0.80;;;14.30;99.90;;;;;;5001399;28;20451;-30
2024/04/01 04:50:13;;;;;;;1.93;0.80;;;14.30;99.90;;;;;;4998258;28;20437;-30
2024/04/01 04:52:39;;;;;;;1.27;0.80;;;14.30;99.90;;;;;;5002391;28;20436;-31
2024/04/01 04:55:05;;;;;;;1.03;0.80;;;14.20;99.90;;;;;;5002680;28;20431;-30
2024/04/01 04:57:31;;;;;;;1.90;1.07;;;14.20;99.90;;;;;;4984316;28;20212;-34
2024/04/01 04:59:59;;;;;;;0.83;0.80;;;14.20;99.90;;;;;;5000508;28;21200;-33
2024/04/01 05:02:29;;;;;;;0.93;0.83;;;14.20;99.90;;;;;;5000641;28;20446;-31
2024/04/01 05:05:01;;;;;;;0.90;0.77;;;14.20;99.90;;;;;;5000211;28;20466;-32
2024/04/01 05:07:27;;;;;;;1.07;0.70;;;14.20;99.90;;;;;;4999281;28;20923;-31
2024/04/01 05:09:53;;;;;;;1.70;0.80;;;14.20;99.90;;;;;;4997771;28;20440;-32
2024/04/01 05:12:19;;;;;;;1.50;0.90;;;14.20;99.90;;;;;;4997904;28;20461;-34
2024/04/01 05:14:47;;;;;;;3.13;0.80;;;14.20;99.90;;;;;;4996940;28;21004;-31
2024/04/01 05:17:13;;;;;;;1.07;0.80;;;14.20;99.90;;;;;;4999076;28;20523;-31
2024/04/01 05:19:42;;;;;;;2.60;1.20;;;14.20;99.90;;;;;;4997587;28;21316;-31
2024/04/01 05:22:10;;;;;;;2.10;0.90;;;14.20;99.90;;;;;;4997880;28;20444;-32
2024/04/01 05:24:36;;;;;;;1.60;1.23;;;14.10;99.90;;;;;;4998372;28;20415;-32
2024/04/01 05:27:02;;;;;;;1.20;0.90;;;14.20;99.90;;;;;;4997383;28;20480;-32
2024/04/01 05:29:28;;;;;;;1.87;0.90;;;14.10;99.90;;;;;;5000407;28;20557;-34
2024/04/01 05:31:54;;;;;;;1.07;0.80;;;14.20;99.90;;;;;;4998489;28;21270;-38
2024/04/01 05:34:22;;;;;;;1.17;0.90;;;14.10;99.90;;;;;;4996645;28;20417;-37
2024/04/01 05:36:51;;;;;;;1.20;0.83;;;14.10;99.90;;;;;;4998341;28;20795;-37
2024/04/01 05:39:17;;;;;;;1.10;1.00;;;14.10;99.90;;;;;;4998713;28;20453;-37
2024/04/01 05:41:43;;;;;;;1.03;0.93;;;14.10;99.90;;;;;;4999308;28;20487;-35
2024/04/01 05:44:11;;;;;;;2.33;1.13;;;14.10;99.90;;;;;;5002138;28;20458;-34
2024/04/01 05:46:37;;;;;;;3.00;1.20;;;14.10;99.90;;;;;;5000261;28;20420;-34
2024/04/01 05:49:03;;;;;;;3.93;0.90;;;14.10;99.90;;;;;;5002239;28;20210;-35
2024/04/01 05:51:32;;;;;;;2.10;0.73;;;14.10;99.90;;;;;;4984405;28;20560;-37
2024/04/01 05:54:00;;;;;;;1.23;0.83;;;14.10;99.90;;;;;;4984399;28;20995;-36
2024/04/01 05:56:28;;;;;;;1.00;0.70;;;14.10;99.90;;;;;;5001026;28;20799;-34
2024/04/01 05:58:57;;;;;;;1.40;0.90;;;14.10;99.90;;;;;;5001056;28;20460;-34
2024/04/01 06:01:23;;;;;;;2.10;1.00;;;14.10;99.90;;;;;;5000489;28;20427;-37
2024/04/01 06:03:49;;;;;;;1.23;1.00;;;14.10;99.90;;;;;;5001341;28;20839;-38
2024/04/01 06:06:15;;;;;;;1.80;0.90;;;14.10;99.90;;;;;;5000956;28;20421;-36
2024/04/01 06:08:41;;;;;;;2.00;1.00;;;14.00;99.90;;;;;;4999811;28;20449;-36
2024/04/01 06:11:07;;;;;;;1.40;1.00;;;14.10;99.90;;;;;;4999599;28;20923;-37
2024/04/01 06:13:33;;;;;;;1.70;1.00;;;14.00;99.90;;;;;;5000011;28;20192;-36
2024/04/01 06:16:01;;;;;;;1.17;0.80;;;14.00;99.90;;;;;;5001184;28;20463;-37
2024/04/01 06:18:27;;;;;;;1.73;1.30;;;14.00;99.90;;;;;;4998699;28;20439;-38
2024/04/01 06:20:53;;;;;;;1.63;1.10;;;14.00;99.90;;;;;;4998809;28;20468;-35
2024/04/01 06:23:21;;;;;;;2.90;1.10;;;14.00;99.90;;;;;;5000992;28;20535;-35
2024/04/01 06:25:47;;;;;;;2.17;0.93;;;14.00;99.90;;;;;;5002311;28;20946;-37
2024/04/01 06:28:15;;;;;;;1.30;1.07;;;14.00;99.90;;;;;;5002130;28;20448;-36
2024/04/01 06:30:43;;;;;;;1.20;0.80;;;14.00;99.90;;;;;;5002071;28;20454;-37
2024/04/01 06:33:12;;;;;;;1.00;0.87;;;14.00;99.90;;;;;;5004042;28;20449;-29
2024/04/01 06:35:40;;;;;;;1.30;0.90;;;14.00;99.90;;;;;;5000032;28;20461;-35
2024/04/01 06:38:06;;;;;;;1.90;1.10;;;14.00;99.90;;;;;;4981815;28;20458;-31
2024/04/01 06:40:36;;;;;;;1.73;0.80;;;14.00;99.90;;;;;;4999338;28;20456;-29
2024/04/01 06:43:02;;;;;;;2.00;1.27;;;14.00;99.90;;;;;;4997742;28;21155;-34
2024/04/01 06:45:32;;;;;;;1.20;0.80;;;14.00;99.90;;;;;;4997739;28;20429;-33
2024/04/01 06:48:02;;;;;;;1.37;1.00;;;13.90;99.90;;;;;;4997740;28;20436;-34
2024/04/01 06:50:29;;;;;;;2.80;1.27;;;13.90;99.90;;;;;;4981774;28;20565;-35
2024/04/01 06:52:57;;;;;;;1.20;1.00;;;14.00;99.90;;;;;;4979497;28;20446;-33
2024/04/01 06:55:23;;;;;;;2.77;1.20;;;13.90;99.90;;;;;;4998963;28;21246;-35
2024/04/01 06:57:52;;;;;;;1.90;0.90;;;13.90;99.90;;;;;;4996898;28;20452;-30
2024/04/01 07:00:20;;;;;;;0.90;0.80;;;13.90;99.90;;;;;;4999559;28;20468;-31
2024/04/01 07:02:46;;;;;;;1.97;1.10;;;13.90;99.90;;;;;;4997501;28;20786;-31
2024/04/01 07:05:15;;;;;;;1.50;0.90;;;13.90;99.90;;;;;;4996611;28;20456;-32
2024/04/01 07:07:41;;;;;;;1.30;1.10;;;13.90;99.90;;;;;;4996864;28;21375;-34
2024/04/01 07:10:08;;;;;;;1.10;1.00;;;13.90;99.90;;;;;;4998333;28;20457;-32
2024/04/01 07:12:34;;;;;;;2.10;1.27;;;13.90;99.90;;;;;;4997833;28;20452;-33
2024/04/01 07:15:02;;;;;;;2.63;1.17;;;13.90;99.90;;;;;;4997784;28;20518;-33
2024/04/01 07:17:28;;;;;;;1.70;1.00;;;13.90;99.90;;;;;;4999401;28;21434;-31
2024/04/01 07:19:54;;;;;;;1.30;0.90;;;13.90;99.90;;;;;;5000030;28;20476;-31
2024/04/01 07:22:23;;;;;;;2.73;1.13;;;13.90;99.90;;;;;;5000240;28;20459;-34
2024/04/01 07:24:54;;;;;;;1.40;1.00;;;13.90;99.90;;;;;;5001363;28;20419;-30
2024/04/01 07:27:21;;;;;;;1.50;0.90;;;13.90;99.90;;;;;;4999532;28;20448;-30
2024/04/01 07:29:52;;;;;;;2.17;1.00;;;13.90;99.90;;;;;;5003013;28;20497;-32
2024/04/01 07:32:20;;;;;;;1.47;0.90;;;13.90;99.90;;;;;;4982374;28;20451;-32
2024/04/01 07:34:47;;;;;;;2.40;1.20;;;13.90;99.90;;;;;;4999972;28;20547;-29
2024/04/01 07:37:16;;;;;;;2.30;1.00;;;13.90;99.90;;;;;;5003302;28;20440;-32
2024/04/01 07:39:42;;;;;;;1.43;0.80;;;13.90;99.90;;;;;;4991853;28;20488;-32
2024/04/01 07:42:10;;;;;;;2.00;1.10;;;13.90;99.90;;;;;;4998633;28;21002;-36
2024/04/01 07:44:38;;;;;;;1.93;1.13;;;13.90;99.90;;;;;;5002552;28;20429;-33
2024/04/01 07:47:08;;;;;;;1.37;1.27;;;13.80;99.90;;;;;;4999369;28;20436;-31
2024/04/01 07:49:37;;;;;;;3.00;1.30;;;13.90;99.90;;;;;;4999265;28;20538;-33
2024/04/01 07:52:06;;;;;;;2.20;1.20;;;13.90;99.90;;;;;;4999626;28;20801;-34
2024/04/01 07:54:34;;;;;;;2.53;1.10;;;13.80;99.90;;;;;;4999615;28;20432;-32
2024/04/01 07:57:03;;;;;;;1.10;1.00;;;13.80;99.90;;;;;;4999867;28;20494;-33
2024/04/01 07:59:30;;;;;;;1.30;1.00;;;13.80;99.90;;;;;;4999662;28;21070;-34
2024/04/01 08:01:57;;;;;;;1.73;1.13;;;13.90;99.90;;;;;;4998428;28;21422;-33
2024/04/01 08:04:27;;;;;;;1.63;1.43;;;13.80;99.90;;;;;;4995580;28;20456;-32
2024/04/01 08:06:56;;;;;;;1.07;0.97;;;13.80;99.90;;;;;;4995638;28;20433;-34
2024/04/01 08:09:24;;;;;;;1.37;1.20;;;13.80;99.90;;;;;;4997779;28;21132;-31
2024/04/01 08:11:50;;;;;;;1.40;0.93;;;13.80;99.90;;;;;;4995734;28;21252;-35
2024/04/01 08:14:21;;;;;;;1.77;1.07;;;13.80;99.90;;;;;;4995115;28;20429;-33
2024/04/01 08:16:47;;;;;;;1.63;1.10;;;13.80;99.90;;;;;;4994847;28;20652;-30
2024/04/01 08:19:15;;;;;;;1.10;1.00;;;13.80;99.90;;;;;;4979391;28;20468;-31
2024/04/01 08:21:41;;;;;;;1.50;1.10;;;13.80;99.90;;;;;;4997395;28;20417;-32
2024/04/01 08:24:09;;;;;;;1.30;1.00;;;13.80;99.90;;;;;;4997280;28;20876;-33
2024/04/01 08:26:36;;;;;;;1.30;1.07;;;13.80;99.90;;;;;;4996227;28;20425;-36
2024/04/01 08:29:04;;;;;;;1.33;1.17;;;13.80;99.90;;;;;;4995812;28;20706;-33
2024/04/01 08:31:34;;;;;;;1.30;1.20;;;13.80;99.90;;;;;;4993121;28;20572;-31
2024/04/01 08:34:01;;;;;;;2.10;1.40;;;13.80;99.90;;;;;;4997731;28;20511;-32
2024/04/01 08:36:30;;;;;;;1.20;1.10;;;13.80;99.90;;;;;;4998656;28;20448;-35
2024/04/01 08:38:58;;;;;;;3.70;0.87;;;13.80;99.90;;;;;;4979475;28;20445;-33
2024/04/01 08:41:49;;;;;;;1.93;1.30;;;13.80;99.90;;;;;;4997384;28;20475;-31
2024/04/01 08:44:16;;;;;;;1.20;1.00;;;13.80;99.90;;;;;;4998095;28;20437;-31
2024/04/01 08:46:56;;;;;;;1.40;1.00;;;13.80;99.90;;;;;;4998286;28;21500;-30
2024/04/01 08:49:50;;;;;;;3.50;1.70;;;13.80;99.90;;;;;;4998733;28;21004;-32
2024/04/01 08:52:25;;;;;;;1.50;1.07;;;13.80;99.90;;;;;;4999302;28;21086;-33
2024/04/01 08:54:52;;;;;;;1.50;1.20;;;13.70;99.90;;;;;;4998378;28;21444;-32
2024/04/01 08:57:18;;;;;;;1.20;1.00;;;13.80;99.90;;;;;;4996752;28;20467;-33
2024/04/01 08:59:45;;;;;;;1.60;1.30;;;13.80;99.90;;;;;;4964654;28;20481;-37
2024/04/01 09:02:11;;;;;;;2.10;1.30;;;13.80;99.90;;;;;;4997256;28;20424;-34
2024/04/01 09:04:37;;;;;;;1.67;1.20;;;13.80;99.90;;;;;;5001238;28;20516;-32
2024/04/01 09:07:03;;;;;;;1.93;1.30;;;13.70;99.90;;;;;;4996522;28;20863;-32
2024/04/01 09:09:31;;;;;;;2.00;1.30;;;13.70;99.90;;;;;;4996148;28;20444;-31
2024/04/01 09:11:58;;;;;;;2.03;1.33;;;13.70;99.90;;;;;;4996085;28;20430;-32
2024/04/01 09:14:25;;;;;;;3.63;1.57;;;13.70;99.90;;;;;;4979731;28;20448;-38
2024/04/01 09:16:52;;;;;;;1.53;1.30;;;13.70;99.90;;;;;;4996074;28;20451;-32
2024/04/01 09:19:22;;;;;;;2.03;1.70;;;13.80;99.90;;;;;;4997434;28;20472;-32
2024/04/01 09:21:50;;;;;;;3.70;2.10;;;13.70;99.90;;;;;;4997117;28;21176;-34
2024/04/01 09:24:17;;;;;;;2.37;1.47;;;13.70;99.90;;;;;;4997775;28;20897;-30
2024/04/01 09:26:51;;;;;;;2.13;1.50;;;13.70;99.90;;;;;;4997855;28;20514;-34
2024/04/01 09:29:17;;;;;;;2.20;1.87;;;13.70;99.90;;;;;;4997125;28;20463;-29
2024/04/01 09:31:44;;;;;;;4.00;1.27;;;13.70;99.90;;;;;;5003736;28;20916;-33
2024/04/01 09:34:27;;;;;;;2.17;1.50;;;13.70;99.90;;;;;;5001984;28;20487;-36
2024/04/01 09:36:54;;;;;;;2.67;1.73;;;13.70;99.90;;;;;;5028181;28;20463;-27
2024/04/01 09:39:20;;;;;;;1.50;1.37;;;13.70;99.90;;;;;;5002321;28;20576;-27
2024/04/01 09:41:48;;;;;;;2.90;1.60;;;13.70;99.90;;;;;;4998953;28;20440;-28
2024/04/01 09:44:14;;;;;;;2.30;1.40;;;13.70;99.90;;;;;;5004022;28;20429;-27
2024/04/01 09:46:41;;;;;;;1.60;1.50;;;13.70;99.90;;;;;;4998375;28;20454;-27
2024/04/01 09:49:07;;;;;;;1.90;1.60;;;13.70;99.90;;;;;;4998746;28;20591;-27
2024/04/01 09:51:35;;;;;;;1.50;1.40;;;13.70;99.90;;;;;;4998538;28;20479;-28
2024/04/01 09:54:04;;;;;;;1.67;1.57;;;13.70;99.90;;;;;;4999885;28;20427;-26
2024/04/01 09:56:56;;;;;;;3.27;2.00;;;13.70;99.90;;;;;;4998274;28;20957;-28
2024/04/01 09:59:38;;;;;;;1.87;1.53;;;13.60;99.90;;;;;;4997684;28;20623;-27
2024/04/01 10:02:09;;;;;;;2.20;2.00;;;13.60;99.90;;;;;;4993262;28;21133;-28
2024/04/01 10:04:50;;;;;;;2.83;2.03;;;13.60;99.90;;;;;;4998813;28;20465;-28
2024/04/01 10:07:58;;;;;;;2.90;1.80;;;13.70;99.90;;;;;;4999308;28;20432;-28
2024/04/01 10:10:42;;;;;;;1.97;1.77;;;13.70;99.90;;;;;;4979910;28;20441;-27
2024/04/01 10:13:40;;;;;;;3.00;2.17;;;13.60;99.90;;;;;;4985365;28;20423;-25
2024/04/01 10:16:25;;;;;;;2.20;2.00;;;13.60;99.90;;;;;;4998694;28;20427;-26
2024/04/01 10:19:00;;;;;;;2.20;2.00;;;13.60;99.90;;;;;;4999030;28;21079;-25
2024/04/01 10:21:54;;;;;;;1.90;1.80;;;13.60;99.90;;;;;;4999320;28;20409;-26
2024/04/01 10:24:38;;;;;;;2.10;1.90;;;13.60;99.90;;;;;;4998473;28;20521;-25
2024/04/01 10:27:25;;;;;;;3.00;2.20;;;13.60;99.90;;;;;;5000342;28;20442;-25
2024/04/01 10:30:39;;;;;;;1.93;1.73;;;13.60;99.90;;;;;;5002930;28;20448;-25
2024/04/01 10:33:39;;;;;;;2.97;2.10;;;13.60;99.90;;;;;;4979713;28;20444;-26
2024/04/01 10:36:23;;;;;;;2.47;2.17;;;13.60;99.90;;;;;;5003396;28;20436;-28
2024/04/01 10:39:21;;;;;;;2.50;2.30;;;13.60;99.90;;;;;;5004737;28;20555;-27
2024/04/01 10:42:23;;;;;;;2.63;2.17;;;13.60;99.90;;;;;;4962017;28;20464;-25
2024/04/01 10:45:16;;;;;;;2.77;2.57;;;13.60;99.90;;;;;;4989504;28;20468;-28
2024/04/01 10:48:07;;;;;;;2.80;2.50;;;13.60;99.90;;;;;;5007128;28;20514;-28
2024/04/01 10:51:21;;;;;;;3.90;2.60;;;13.60;99.90;;;;;;5000159;28;20441;-27
2024/04/01 10:54:00;;;;;;;2.60;2.40;;;13.60;99.90;;;;;;4999096;28;20442;-27
2024/04/01 10:56:54;;;;;;;2.60;2.40;;;13.60;99.90;;;;;;4999373;28;20408;-26
2024/04/01 10:59:47;;;;;;;3.80;3.50;;;13.60;99.90;;;;;;4999208;28;21107;-28
2024/04/01 11:02:46;;;;;;;3.97;3.57;;;13.60;99.90;;;;;;4991454;28;20452;-27
2024/04/01 11:05:21;;;;;;;3.77;3.43;;;13.60;99.90;;;;;;5000548;28;20436;-29
2024/04/01 11:08:29;;;;;;;5.23;4.03;;;13.60;99.90;;;;;;4997059;28;20420;-28
2024/04/01 11:11:13;;;;;;;5.00;3.77;;;13.60;99.90;;;;;;4991144;28;20445;-28
2024/04/01 11:13:42;;;;;;;3.93;3.60;;;13.60;99.90;;;;;;4999127;28;22069;-28
2024/04/01 11:16:09;;;;;;;4.40;3.60;;;13.60;99.90;;;;;;5000239;28;20428;-28
2024/04/01 11:18:37;;;;;;;5.07;3.90;;;13.60;99.90;;;;;;4998025;28;20529;-28
2024/04/01 11:21:19;;;;;;;4.70;3.97;;;13.60;99.90;;;;;;4998426;28;20472;-28
2024/04/01 11:24:15;;;;;;;4.00;3.67;;;13.60;99.90;;;;;;4999868;28;20614;-28
2024/04/01 11:27:18;;;;;;;4.47;4.17;;;13.60;99.90;;;;;;4963203;28;20441;-28
2024/04/01 11:29:58;;;;;;;4.73;4.33;;;13.60;99.90;;;;;;4999005;28;20452;-28
2024/04/01 11:32:27;;;;;;;4.67;4.27;;;13.60;99.90;;;;;;4999635;28;20428;-27
2024/04/01 11:35:12;;;;;;;5.20;4.70;;;13.60;99.90;;;;;;4999118;28;20444;-25
2024/04/01 11:38:00;;;;;;;4.67;4.27;;;13.70;99.90;;;;;;5000653;28;20451;-27
2024/04/01 11:40:30;;;;;;;5.30;4.90;;;13.70;99.90;;;;;;4997780;28;21258;-25
2024/04/01 11:43:10;;;;;;;5.40;4.70;;;13.70;99.90;;;;;;4999797;28;20425;-27
2024/04/01 11:45:43;;;;;;;5.80;5.20;;;13.70;99.90;;;;;;4998841;28;20449;-26
2024/04/01 11:48:12;;;;;;;5.27;4.77;;;13.70;99.90;;;;;;4999427;28;21412;-28
2024/04/01 11:50:53;;;;;;;4.90;4.50;;;13.70;99.90;;;;;;4997695;28;20503;-26
2024/04/01 11:53:21;;;;;;;5.30;4.80;;;13.70;99.90;;;;;;4990705;28;20445;-25
2024/04/01 11:55:58;;;;;;;5.07;4.67;;;13.70;99.90;;;;;;5004669;28;20437;-26
2024/04/01 11:58:26;;;;;;;5.47;4.97;;;13.70;99.90;;;;;;5000322;28;20684;-27
2024/04/01 12:00:57;;;;;;;5.80;5.20;;;13.70;99.90;;;;;;4997148;28;20860;-24
2024/04/01 12:03:37;;;;;;;5.23;4.77;;;13.70;99.90;;;;;;5000293;28;20991;-25
2024/04/01 12:06:05;;;;;;;4.10;3.80;;;13.70;99.90;;;;;;4999751;28;20422;-27
2024/04/01 12:08:33;;;;;;;5.57;4.00;;;13.70;99.90;;;;;;5000365;28;20471;-27
2024/04/01 12:11:02;;;;;;;4.97;4.00;;;13.70;99.90;;;;;;5003030;28;21082;-25
2024/04/01 12:13:28;;;;;;;4.77;4.07;;;13.70;99.90;;;;;;5002417;28;20563;-27
2024/04/01 12:15:55;;;;;;;4.77;4.27;;;13.70;99.90;;;;;;5004230;28;20448;-27
2024/04/01 12:18:24;;;;;;;3.50;3.03;;;13.70;99.90;;;;;;4987479;28;20999;-26
2024/04/01 12:20:56;;;;;;;3.33;3.00;;;13.70;99.90;;;;;;5003263;28;20456;-25
2024/04/01 12:23:27;;;;;;;3.33;3.03;;;13.70;99.90;;;;;;5004799;28;20502;-27
2024/04/01 12:26:04;;;;;;;3.40;3.10;;;13.70;99.90;;;;;;5005257;28;20452;-27
2024/04/01 12:28:30;;;;;;;2.93;2.60;;;13.70;99.90;;;;;;5000057;28;20788;-29
2024/04/01 12:30:58;;;;;;;5.63;2.90;;;13.70;99.90;;;;;;4990786;28;20431;-27
2024/04/01 12:33:28;;;;;;;3.63;2.87;;;13.70;99.90;;;;;;5003295;28;20444;-28
2024/04/01 12:35:57;;;;;;;7.60;2.73;;;13.70;99.90;;;;;;4997027;28;20450;-28
2024/04/01 12:38:32;;;;;;;4.20;3.27;;;13.70;99.90;;;;;;5000484;28;20500;-26
2024/04/01 12:41:00;;;;;;;5.27;2.37;;;13.70;99.90;;;;;;5000687;28;20486;-28
2024/04/01 12:43:27;;;;;;;3.50;2.73;;;13.70;99.90;;;;;;5003658;28;20429;-30
2024/04/01 12:45:56;;;;;;;3.00;2.63;;;13.70;99.90;;;;;;4996240;28;20432;-28
2024/04/01 12:48:22;;;;;;;2.87;2.60;;;13.80;99.90;;;;;;4979849;28;20470;-30
2024/04/01 12:50:54;;;;;;;3.47;2.60;;;13.70;99.90;;;;;;4996195;28;20512;-28
2024/04/01 12:53:29;;;;;;;2.70;2.37;;;13.70;99.90;;;;;;4997034;28;21286;-28
2024/04/01 12:56:37;;;;;;;3.53;2.37;;;13.80;99.90;;;;;;4999539;28;20511;-27
2024/04/01 12:59:40;;;;;;;3.83;2.40;;;13.80;99.90;;;;;;5000012;28;20481;-28
2024/04/01 13:02:18;;;;;;;3.20;2.60;;;13.80;99.90;;;;;;4984930;28;20453;-26
2024/04/01 13:05:13;;;;;;;3.37;2.60;;;13.80;99.90;;;;;;5013863;28;20475;-26
2024/04/01 13:07:54;;;;;;;3.57;2.40;;;13.80;99.90;;;;;;5012057;28;20452;-25